sensor_id;sensor_type;location;lat;lon;timestamp;temperature;humidity
15690;DHT22;7945;48.816;11.506;2023-04-25T00:00:00;10.70;99.80
15690;DHT22;7945;48.816;11.506;2023-04-25T00:02:27;10.70;99.80
15690;DHT22;7945;48.816;11.506;2023-04-25T00:04:54;10.60;99.80
15690;DHT22;7945;48.816;11.506;2023-04-25T00:07:24;10.60;99.90
15690;DHT22;7945;48.816;11.506;2023-04-25T00:09:51;10.60;99.90
15690;DHT22;7945;48.816;11.506;2023-04-25T00:12:18;10.50;99.90
15690;DHT22;7945;48.816;11.506;2023-04-25T00:14:45;10.50;99.90
15690;DHT22;7945;48.816;11.506;2023-04-25T00:17:12;10.50;99.90
15690;DHT22;7945;48.816;11.506;2023-04-25T00:19:39;10.50;99.90
15690;DHT22;7945;48.816;11.506;2023-04-25T00:22:05;10.50;99.90
15690;DHT22;7945;48.816;11.506;2023-04-25T00:24:34;10.50;99.90
15690;DHT22;7945;48.816;11.506;2023-04-25T00:27:00;10.50;99.90
15690;DHT22;7945;48.816;11.506;2023-04-25T00:29:27;10.50;99.90
15690;DHT22;7945;48.816;11.506;2023-04-25T00:31:54;10.50;99.90
15690;DHT22;7945;48.816;11.506;2023-04-25T00:34:20;10.50;99.90
15690;DHT22;7945;48.816;11.506;2023-04-25T00:36:47;10.50;99.90
15690;DHT22;7945;48.816;11.506;2023-04-25T00:39:14;10.50;99.90
15690;DHT22;7945;48.816;11.506;2023-04-25T00:41:43;10.40;99.90
15690;DHT22;7945;48.816;11.506;2023-04-25T00:44:10;10.40;99.90
15690;DHT22;7945;48.816;11.506;2023-04-25T00:46:38;10.40;99.90
15690;DHT22;7945;48.816;11.506;2023-04-25T00:49:05;10.40;99.90
15690;DHT22;7945;48.816;11.506;2023-04-25T00:51:33;10.40;99.90
15690;DHT22;7945;48.816;11.506;2023-04-25T00:54:00;10.40;99.90
15690;DHT22;7945;48.816;11.506;2023-04-25T00:56:27;10.30;99.90
15690;DHT22;7945;48.816;11.506;2023-04-25T00:58:56;10.30;99.90
15690;DHT22;7945;48.816;11.506;2023-04-25T01:01:23;10.20;99.90
15690;DHT22;7945;48.816;11.506;2023-04-25T01:03:50;10.20;99.90
15690;DHT22;7945;48.816;11.506;2023-04-25T01:06:16;10.20;99.90
15690;DHT22;7945;48.816;11.506;2023-04-25T01:08:43;10.10;99.90
15690;DHT22;7945;48.816;11.506;2023-04-25T01:11:10;10.10;99.90
15690;DHT22;7945;48.816;11.506;2023-04-25T01:13:37;10.00;99.90
15690;DHT22;7945;48.816;11.506;2023-04-25T01:16:05;10.00;99.90
15690;DHT22;7945;48.816;11.506;2023-04-25T01:18:32;10.00;99.90
15690;DHT22;7945;48.816;11.506;2023-04-25T01:21:06;9.90;99.90
15690;DHT22;7945;48.816;11.506;2023-04-25T01:23:34;9.90;99.90
15690;DHT22;7945;48.816;11.506;2023-04-25T01:26:01;9.90;99.90
15690;DHT22;7945;48.816;11.506;2023-04-25T01:28:28;9.80;99.90
15690;DHT22;7945;48.816;11.506;2023-04-25T01:30:55;9.70;99.90
15690;DHT22;7945;48.816;11.506;2023-04-25T01:33:22;9.70;99.90
15690;DHT22;7945;48.816;11.506;2023-04-25T01:35:49;9.70;99.90
15690;DHT22;7945;48.816;11.506;2023-04-25T01:38:17;9.70;99.90
15690;DHT22;7945;48.816;11.506;2023-04-25T01:40:45;9.70;99.90
15690;DHT22;7945;48.816;11.506;2023-04-25T01:43:12;9.70;99.90
15690;DHT22;7945;48.816;11.506;2023-04-25T01:45:40;9.60;99.90
15690;DHT22;7945;48.816;11.506;2023-04-25T01:48:07;9.60;99.90
15690;DHT22;7945;48.816;11.506;2023-04-25T01:50:34;9.70;99.90
15690;DHT22;7945;48.816;11.506;2023-04-25T01:53:00;9.70;99.90
15690;DHT22;7945;48.816;11.506;2023-04-25T01:55:29;9.70;99.90
15690;DHT22;7945;48.816;11.506;2023-04-25T01:57:56;9.70;99.90
15690;DHT22;7945;48.816;11.506;2023-04-25T02:00:23;9.70;99.90
15690;DHT22;7945;48.816;11.506;2023-04-25T02:02:50;9.70;99.90
15690;DHT22;7945;48.816;11.506;2023-04-25T02:05:19;9.70;99.90
15690;DHT22;7945;48.816;11.506;2023-04-25T02:07:46;9.70;99.90
15690;DHT22;7945;48.816;11.506;2023-04-25T02:10:13;9.70;99.90
15690;DHT22;7945;48.816;11.506;2023-04-25T02:12:41;9.70;99.90
15690;DHT22;7945;48.816;11.506;2023-04-25T02:15:09;9.70;99.90
15690;DHT22;7945;48.816;11.506;2023-04-25T02:17:36;9.80;99.90
15690;DHT22;7945;48.816;11.506;2023-04-25T02:20:03;9.80;99.90
15690;DHT22;7945;48.816;11.506;2023-04-25T02:22:30;9.80;99.90
15690;DHT22;7945;48.816;11.506;2023-04-25T02:24:59;9.90;99.90
15690;DHT22;7945;48.816;11.506;2023-04-25T02:27:26;9.90;99.90
15690;DHT22;7945;48.816;11.506;2023-04-25T02:29:54;9.90;99.90
15690;DHT22;7945;48.816;11.506;2023-04-25T02:32:20;9.90;99.90
15690;DHT22;7945;48.816;11.506;2023-04-25T02:34:47;9.90;99.90
15690;DHT22;7945;48.816;11.506;2023-04-25T02:37:14;9.90;99.90
15690;DHT22;7945;48.816;11.506;2023-04-25T02:39:41;9.90;99.90
15690;DHT22;7945;48.816;11.506;2023-04-25T02:42:07;9.80;99.90
15690;DHT22;7945;48.816;11.506;2023-04-25T02:44:34;9.80;99.90
15690;DHT22;7945;48.816;11.506;2023-04-25T02:47:02;9.80;99.90
15690;DHT22;7945;48.816;11.506;2023-04-25T02:49:29;9.80;99.90
15690;DHT22;7945;48.816;11.506;2023-04-25T02:51:56;9.80;99.90
15690;DHT22;7945;48.816;11.506;2023-04-25T02:54:23;9.90;99.90
15690;DHT22;7945;48.816;11.506;2023-04-25T02:56:50;9.90;99.90
15690;DHT22;7945;48.816;11.506;2023-04-25T02:59:16;9.90;99.90
15690;DHT22;7945;48.816;11.506;2023-04-25T03:01:43;9.90;99.90
15690;DHT22;7945;48.816;11.506;2023-04-25T03:04:12;9.90;99.90
15690;DHT22;7945;48.816;11.506;2023-04-25T03:06:38;9.90;99.90
15690;DHT22;7945;48.816;11.506;2023-04-25T03:09:05;9.90;99.90
15690;DHT22;7945;48.816;11.506;2023-04-25T03:11:32;9.80;99.90
15690;DHT22;7945;48.816;11.506;2023-04-25T03:13:59;9.90;99.90
15690;DHT22;7945;48.816;11.506;2023-04-25T03:16:26;9.90;99.90
15690;DHT22;7945;48.816;11.506;2023-04-25T03:18:52;9.90;99.90
15690;DHT22;7945;48.816;11.506;2023-04-25T03:21:20;9.90;99.90
15690;DHT22;7945;48.816;11.506;2023-04-25T03:23:47;9.90;99.90
15690;DHT22;7945;48.816;11.506;2023-04-25T03:26:14;10.10;99.90
15690;DHT22;7945;48.816;11.506;2023-04-25T03:28:41;10.20;99.90
15690;DHT22;7945;48.816;11.506;2023-04-25T03:31:07;10.10;99.90
15690;DHT22;7945;48.816;11.506;2023-04-25T03:33:34;10.10;99.90
15690;DHT22;7945;48.816;11.506;2023-04-25T03:36:01;10.10;99.90
15690;DHT22;7945;48.816;11.506;2023-04-25T03:38:29;10.00;99.90
15690;DHT22;7945;48.816;11.506;2023-04-25T03:40:56;10.00;99.90
15690;DHT22;7945;48.816;11.506;2023-04-25T03:43:23;10.00;99.90
15690;DHT22;7945;48.816;11.506;2023-04-25T03:45:49;10.00;99.90
15690;DHT22;7945;48.816;11.506;2023-04-25T03:48:17;9.90;99.90
15690;DHT22;7945;48.816;11.506;2023-04-25T03:50:43;9.90;99.90
15690;DHT22;7945;48.816;11.506;2023-04-25T03:53:10;9.90;99.90
15690;DHT22;7945;48.816;11.506;2023-04-25T03:55:38;9.90;99.90
15690;DHT22;7945;48.816;11.506;2023-04-25T03:58:05;9.90;99.90
15690;DHT22;7945;48.816;11.506;2023-04-25T04:00:33;9.80;99.90
15690;DHT22;7945;48.816;11.506;2023-04-25T04:03:00;9.80;99.90
15690;DHT22;7945;48.816;11.506;2023-04-25T04:05:27;9.80;99.90
15690;DHT22;7945;48.816;11.506;2023-04-25T04:07:54;9.80;99.90
15690;DHT22;7945;48.816;11.506;2023-04-25T04:10:21;9.80;99.90
15690;DHT22;7945;48.816;11.506;2023-04-25T04:12:49;9.70;99.90
15690;DHT22;7945;48.816;11.506;2023-04-25T04:15:16;9.70;99.90
15690;DHT22;7945;48.816;11.506;2023-04-25T04:17:42;9.70;99.90
15690;DHT22;7945;48.816;11.506;2023-04-25T04:20:10;9.70;99.90
15690;DHT22;7945;48.816;11.506;2023-04-25T04:22:36;9.60;99.90
15690;DHT22;7945;48.816;11.506;2023-04-25T04:25:04;9.60;99.90
15690;DHT22;7945;48.816;11.506;2023-04-25T04:27:32;9.60;99.90
15690;DHT22;7945;48.816;11.506;2023-04-25T04:30:01;9.60;99.90
15690;DHT22;7945;48.816;11.506;2023-04-25T04:32:28;9.60;99.90
15690;DHT22;7945;48.816;11.506;2023-04-25T04:34:55;9.50;99.90
15690;DHT22;7945;48.816;11.506;2023-04-25T04:37:22;9.50;99.90
15690;DHT22;7945;48.816;11.506;2023-04-25T04:39:49;9.50;99.90
15690;DHT22;7945;48.816;11.506;2023-04-25T04:42:17;9.60;99.90
15690;DHT22;7945;48.816;11.506;2023-04-25T04:44:43;9.60;99.90
15690;DHT22;7945;48.816;11.506;2023-04-25T04:47:12;9.60;99.90
15690;DHT22;7945;48.816;11.506;2023-04-25T04:49:39;9.70;99.90
15690;DHT22;7945;48.816;11.506;2023-04-25T04:52:06;9.70;99.90
15690;DHT22;7945;48.816;11.506;2023-04-25T04:54:33;9.70;99.90
15690;DHT22;7945;48.816;11.506;2023-04-25T04:57:00;9.80;99.90
15690;DHT22;7945;48.816;11.506;2023-04-25T04:59:27;9.90;99.90
15690;DHT22;7945;48.816;11.506;2023-04-25T05:01:54;10.00;99.90
15690;DHT22;7945;48.816;11.506;2023-04-25T05:04:22;10.20;99.90
15690;DHT22;7945;48.816;11.506;2023-04-25T05:06:48;10.30;99.90
15690;DHT22;7945;48.816;11.506;2023-04-25T05:09:15;10.60;99.90
15690;DHT22;7945;48.816;11.506;2023-04-25T05:11:42;10.80;99.90
15690;DHT22;7945;48.816;11.506;2023-04-25T05:14:08;10.80;99.90
15690;DHT22;7945;48.816;11.506;2023-04-25T05:16:35;10.70;99.90
15690;DHT22;7945;48.816;11.506;2023-04-25T05:19:02;10.60;99.90
15690;DHT22;7945;48.816;11.506;2023-04-25T05:21:30;10.60;99.90
15690;DHT22;7945;48.816;11.506;2023-04-25T05:23:57;10.50;99.90
15690;DHT22;7945;48.816;11.506;2023-04-25T05:26:23;10.40;99.90
15690;DHT22;7945;48.816;11.506;2023-04-25T05:28:50;10.40;99.90
15690;DHT22;7945;48.816;11.506;2023-04-25T05:31:17;10.30;99.90
15690;DHT22;7945;48.816;11.506;2023-04-25T05:33:44;10.30;99.90
15690;DHT22;7945;48.816;11.506;2023-04-25T05:36:11;10.30;99.90
15690;DHT22;7945;48.816;11.506;2023-04-25T05:38:39;10.30;99.90
15690;DHT22;7945;48.816;11.506;2023-04-25T05:41:06;10.30;99.90
15690;DHT22;7945;48.816;11.506;2023-04-25T05:43:32;10.30;99.90
15690;DHT22;7945;48.816;11.506;2023-04-25T05:45:59;10.20;99.90
15690;DHT22;7945;48.816;11.506;2023-04-25T05:48:26;10.20;99.90
15690;DHT22;7945;48.816;11.506;2023-04-25T05:50:53;10.40;99.90
15690;DHT22;7945;48.816;11.506;2023-04-25T05:53:20;10.40;99.90
15690;DHT22;7945;48.816;11.506;2023-04-25T05:55:48;10.40;99.90
15690;DHT22;7945;48.816;11.506;2023-04-25T05:58:15;10.40;99.90
15690;DHT22;7945;48.816;11.506;2023-04-25T06:00:42;10.40;99.90
15690;DHT22;7945;48.816;11.506;2023-04-25T06:03:08;10.50;99.90
15690;DHT22;7945;48.816;11.506;2023-04-25T06:05:36;10.50;99.90
15690;DHT22;7945;48.816;11.506;2023-04-25T06:08:03;10.50;99.90
15690;DHT22;7945;48.816;11.506;2023-04-25T06:10:29;10.40;99.90
15690;DHT22;7945;48.816;11.506;2023-04-25T06:15:21;10.40;99.90
15690;DHT22;7945;48.816;11.506;2023-04-25T06:17:48;10.30;99.90
15690;DHT22;7945;48.816;11.506;2023-04-25T06:20:15;10.30;99.90
15690;DHT22;7945;48.816;11.506;2023-04-25T06:22:41;10.30;99.90
15690;DHT22;7945;48.816;11.506;2023-04-25T06:25:08;10.30;99.90
15690;DHT22;7945;48.816;11.506;2023-04-25T06:27:35;10.30;99.90
15690;DHT22;7945;48.816;11.506;2023-04-25T06:30:02;10.30;99.90
15690;DHT22;7945;48.816;11.506;2023-04-25T06:32:31;10.40;99.90
15690;DHT22;7945;48.816;11.506;2023-04-25T06:34:57;10.60;99.90
15690;DHT22;7945;48.816;11.506;2023-04-25T06:37:24;10.90;99.90
15690;DHT22;7945;48.816;11.506;2023-04-25T06:39:51;11.30;99.90
15690;DHT22;7945;48.816;11.506;2023-04-25T06:42:18;11.40;99.90
15690;DHT22;7945;48.816;11.506;2023-04-25T06:44:44;11.50;99.90
15690;DHT22;7945;48.816;11.506;2023-04-25T06:47:11;11.70;99.90
15690;DHT22;7945;48.816;11.506;2023-04-25T06:49:39;11.70;99.90
15690;DHT22;7945;48.816;11.506;2023-04-25T06:52:07;11.70;99.90
15690;DHT22;7945;48.816;11.506;2023-04-25T06:54:33;11.70;99.90
15690;DHT22;7945;48.816;11.506;2023-04-25T06:57:00;11.80;99.90
15690;DHT22;7945;48.816;11.506;2023-04-25T06:59:27;12.00;99.90
15690;DHT22;7945;48.816;11.506;2023-04-25T07:01:54;12.10;99.80
15690;DHT22;7945;48.816;11.506;2023-04-25T07:04:20;12.30;99.40
15690;DHT22;7945;48.816;11.506;2023-04-25T07:06:48;12.30;98.60
15690;DHT22;7945;48.816;11.506;2023-04-25T07:09:15;12.10;98.90
15690;DHT22;7945;48.816;11.506;2023-04-25T07:11:42;11.90;99.40
15690;DHT22;7945;48.816;11.506;2023-04-25T07:14:09;11.80;99.30
15690;DHT22;7945;48.816;11.506;2023-04-25T07:16:36;11.60;99.30
15690;DHT22;7945;48.816;11.506;2023-04-25T07:19:03;11.50;99.70
15690;DHT22;7945;48.816;11.506;2023-04-25T07:21:29;11.50;99.70
15690;DHT22;7945;48.816;11.506;2023-04-25T07:23:59;11.50;99.90
15690;DHT22;7945;48.816;11.506;2023-04-25T07:26:26;11.50;99.90
15690;DHT22;7945;48.816;11.506;2023-04-25T07:28:52;11.50;99.90
15690;DHT22;7945;48.816;11.506;2023-04-25T07:31:20;11.60;99.90
15690;DHT22;7945;48.816;11.506;2023-04-25T07:33:47;11.70;99.90
15690;DHT22;7945;48.816;11.506;2023-04-25T07:36:13;11.70;99.70
15690;DHT22;7945;48.816;11.506;2023-04-25T07:38:41;11.60;99.70
15690;DHT22;7945;48.816;11.506;2023-04-25T07:41:09;11.50;99.70
15690;DHT22;7945;48.816;11.506;2023-04-25T07:43:36;11.50;99.90
15690;DHT22;7945;48.816;11.506;2023-04-25T07:46:02;11.50;99.80
15690;DHT22;7945;48.816;11.506;2023-04-25T07:48:29;11.50;99.90
15690;DHT22;7945;48.816;11.506;2023-04-25T07:50:56;11.50;99.50
15690;DHT22;7945;48.816;11.506;2023-04-25T07:53:23;11.50;99.60
15690;DHT22;7945;48.816;11.506;2023-04-25T07:55:50;11.60;99.60
15690;DHT22;7945;48.816;11.506;2023-04-25T07:58:18;11.60;99.80
15690;DHT22;7945;48.816;11.506;2023-04-25T08:00:46;11.60;99.90
15690;DHT22;7945;48.816;11.506;2023-04-25T08:03:13;11.60;99.80
15690;DHT22;7945;48.816;11.506;2023-04-25T08:05:40;11.60;99.90
15690;DHT22;7945;48.816;11.506;2023-04-25T08:08:07;11.60;99.90
15690;DHT22;7945;48.816;11.506;2023-04-25T08:10:33;11.60;99.90
15690;DHT22;7945;48.816;11.506;2023-04-25T08:13:00;11.70;99.70
15690;DHT22;7945;48.816;11.506;2023-04-25T08:15:29;11.70;99.60
15690;DHT22;7945;48.816;11.506;2023-04-25T08:17:56;11.80;99.80
15690;DHT22;7945;48.816;11.506;2023-04-25T08:20:22;11.80;99.20
15690;DHT22;7945;48.816;11.506;2023-04-25T08:22:50;11.90;99.00
15690;DHT22;7945;48.816;11.506;2023-04-25T08:25:16;11.90;98.70
15690;DHT22;7945;48.816;11.506;2023-04-25T08:27:43;11.90;98.70
15690;DHT22;7945;48.816;11.506;2023-04-25T08:30:10;11.90;98.30
15690;DHT22;7945;48.816;11.506;2023-04-25T08:32:38;12.10;99.00
15690;DHT22;7945;48.816;11.506;2023-04-25T08:35:06;12.10;98.00
15690;DHT22;7945;48.816;11.506;2023-04-25T08:37:33;12.10;98.30
15690;DHT22;7945;48.816;11.506;2023-04-25T08:39:59;12.20;98.00
15690;DHT22;7945;48.816;11.506;2023-04-25T08:42:27;12.30;98.00
15690;DHT22;7945;48.816;11.506;2023-04-25T08:44:55;12.40;97.80
15690;DHT22;7945;48.816;11.506;2023-04-25T08:47:22;12.50;98.10
15690;DHT22;7945;48.816;11.506;2023-04-25T08:49:53;12.60;97.30
15690;DHT22;7945;48.816;11.506;2023-04-25T08:52:22;12.70;97.30
15690;DHT22;7945;48.816;11.506;2023-04-25T08:54:51;12.70;97.60
15690;DHT22;7945;48.816;11.506;2023-04-25T08:57:20;12.60;97.50
15690;DHT22;7945;48.816;11.506;2023-04-25T08:59:47;12.50;97.10
15690;DHT22;7945;48.816;11.506;2023-04-25T09:02:15;12.50;97.00
15690;DHT22;7945;48.816;11.506;2023-04-25T09:04:43;12.60;97.10
15690;DHT22;7945;48.816;11.506;2023-04-25T09:07:12;12.70;96.30
15690;DHT22;7945;48.816;11.506;2023-04-25T09:09:41;12.80;96.50
15690;DHT22;7945;48.816;11.506;2023-04-25T09:12:08;12.70;96.40
15690;DHT22;7945;48.816;11.506;2023-04-25T09:14:35;12.60;96.60
15690;DHT22;7945;48.816;11.506;2023-04-25T09:17:03;12.60;96.20
15690;DHT22;7945;48.816;11.506;2023-04-25T09:19:32;12.60;96.40
15690;DHT22;7945;48.816;11.506;2023-04-25T09:22:02;12.50;96.60
15690;DHT22;7945;48.816;11.506;2023-04-25T09:24:35;12.30;97.50
15690;DHT22;7945;48.816;11.506;2023-04-25T09:27:05;12.20;98.30
15690;DHT22;7945;48.816;11.506;2023-04-25T09:29:33;12.10;98.80
15690;DHT22;7945;48.816;11.506;2023-04-25T09:32:17;12.00;98.80
15690;DHT22;7945;48.816;11.506;2023-04-25T09:34:46;12.10;99.10
15690;DHT22;7945;48.816;11.506;2023-04-25T09:37:17;12.00;98.60
15690;DHT22;7945;48.816;11.506;2023-04-25T09:39:47;11.90;99.00
15690;DHT22;7945;48.816;11.506;2023-04-25T09:42:15;11.90;99.50
15690;DHT22;7945;48.816;11.506;2023-04-25T09:44:43;11.80;99.30
15690;DHT22;7945;48.816;11.506;2023-04-25T09:47:11;11.80;99.30
15690;DHT22;7945;48.816;11.506;2023-04-25T09:49:40;11.80;99.30
15690;DHT22;7945;48.816;11.506;2023-04-25T09:52:09;11.90;98.90
15690;DHT22;7945;48.816;11.506;2023-04-25T09:54:39;12.00;99.00
15690;DHT22;7945;48.816;11.506;2023-04-25T09:57:11;12.20;99.20
15690;DHT22;7945;48.816;11.506;2023-04-25T09:59:41;12.30;99.20
15690;DHT22;7945;48.816;11.506;2023-04-25T10:02:09;12.40;98.50
15690;DHT22;7945;48.816;11.506;2023-04-25T10:04:38;12.50;98.50
15690;DHT22;7945;48.816;11.506;2023-04-25T10:07:06;12.50;97.70
15690;DHT22;7945;48.816;11.506;2023-04-25T10:09:36;12.60;98.00
15690;DHT22;7945;48.816;11.506;2023-04-25T10:12:05;12.80;97.70
15690;DHT22;7945;48.816;11.506;2023-04-25T10:14:34;12.80;97.70
15690;DHT22;7945;48.816;11.506;2023-04-25T10:17:01;12.80;98.00
15690;DHT22;7945;48.816;11.506;2023-04-25T10:19:28;12.70;98.20
15690;DHT22;7945;48.816;11.506;2023-04-25T10:21:58;12.60;97.80
15690;DHT22;7945;48.816;11.506;2023-04-25T10:24:30;12.40;98.20
15690;DHT22;7945;48.816;11.506;2023-04-25T10:26:57;12.10;98.10
15690;DHT22;7945;48.816;11.506;2023-04-25T10:29:25;12.10;98.20
15690;DHT22;7945;48.816;11.506;2023-04-25T10:31:53;11.90;97.90
15690;DHT22;7945;48.816;11.506;2023-04-25T10:34:24;11.80;97.90
15690;DHT22;7945;48.816;11.506;2023-04-25T10:36:52;11.80;98.90
15690;DHT22;7945;48.816;11.506;2023-04-25T10:39:24;11.80;98.30
15690;DHT22;7945;48.816;11.506;2023-04-25T10:41:55;11.90;98.00
15690;DHT22;7945;48.816;11.506;2023-04-25T10:44:23;12.10;98.10
15690;DHT22;7945;48.816;11.506;2023-04-25T10:46:55;12.40;98.00
15690;DHT22;7945;48.816;11.506;2023-04-25T10:49:32;12.80;97.50
15690;DHT22;7945;48.816;11.506;2023-04-25T10:52:17;13.20;96.70
15690;DHT22;7945;48.816;11.506;2023-04-25T10:54:47;13.50;95.70
15690;DHT22;7945;48.816;11.506;2023-04-25T10:57:36;13.60;95.90
15690;DHT22;7945;48.816;11.506;2023-04-25T11:00:09;13.80;95.90
15690;DHT22;7945;48.816;11.506;2023-04-25T11:02:44;13.90;95.10
15690;DHT22;7945;48.816;11.506;2023-04-25T11:05:20;14.00;94.60
15690;DHT22;7945;48.816;11.506;2023-04-25T11:07:50;14.00;95.00
15690;DHT22;7945;48.816;11.506;2023-04-25T11:10:18;14.10;94.80
15690;DHT22;7945;48.816;11.506;2023-04-25T11:12:45;14.30;94.60
15690;DHT22;7945;48.816;11.506;2023-04-25T11:15:13;14.40;94.00
15690;DHT22;7945;48.816;11.506;2023-04-25T11:17:40;14.50;94.40
15690;DHT22;7945;48.816;11.506;2023-04-25T11:20:09;14.70;94.10
15690;DHT22;7945;48.816;11.506;2023-04-25T11:22:38;14.80;93.00
15690;DHT22;7945;48.816;11.506;2023-04-25T11:25:06;15.00;93.00
15690;DHT22;7945;48.816;11.506;2023-04-25T11:27:33;15.00;92.20
15690;DHT22;7945;48.816;11.506;2023-04-25T11:30:11;14.90;91.80
15690;DHT22;7945;48.816;11.506;2023-04-25T11:32:39;14.70;92.30
15690;DHT22;7945;48.816;11.506;2023-04-25T11:35:08;14.60;92.70
15690;DHT22;7945;48.816;11.506;2023-04-25T11:37:35;14.50;92.60
15690;DHT22;7945;48.816;11.506;2023-04-25T11:40:02;14.50;92.20
15690;DHT22;7945;48.816;11.506;2023-04-25T11:42:32;14.30;91.80
15690;DHT22;7945;48.816;11.506;2023-04-25T11:44:58;14.20;92.10
15690;DHT22;7945;48.816;11.506;2023-04-25T11:47:28;14.20;92.60
15690;DHT22;7945;48.816;11.506;2023-04-25T11:49:55;14.20;94.20
15690;DHT22;7945;48.816;11.506;2023-04-25T11:52:34;14.10;91.60
15690;DHT22;7945;48.816;11.506;2023-04-25T11:55:01;14.10;92.10
15690;DHT22;7945;48.816;11.506;2023-04-25T11:57:31;13.90;92.00
15690;DHT22;7945;48.816;11.506;2023-04-25T12:00:06;13.90;92.50
15690;DHT22;7945;48.816;11.506;2023-04-25T12:02:35;13.90;93.00
15690;DHT22;7945;48.816;11.506;2023-04-25T12:05:02;14.20;93.10
15690;DHT22;7945;48.816;11.506;2023-04-25T12:07:30;14.40;92.80
15690;DHT22;7945;48.816;11.506;2023-04-25T12:09:58;14.50;91.80
15690;DHT22;7945;48.816;11.506;2023-04-25T12:12:27;14.50;92.30
15690;DHT22;7945;48.816;11.506;2023-04-25T12:14:54;14.30;92.40
15690;DHT22;7945;48.816;11.506;2023-04-25T12:17:22;14.20;92.10
15690;DHT22;7945;48.816;11.506;2023-04-25T12:19:49;14.20;90.90
15690;DHT22;7945;48.816;11.506;2023-04-25T12:22:20;14.20;91.10
15690;DHT22;7945;48.816;11.506;2023-04-25T12:24:49;14.10;91.50
15690;DHT22;7945;48.816;11.506;2023-04-25T12:27:17;14.10;92.10
15690;DHT22;7945;48.816;11.506;2023-04-25T12:29:50;14.10;92.10
15690;DHT22;7945;48.816;11.506;2023-04-25T12:32:17;14.10;92.30
15690;DHT22;7945;48.816;11.506;2023-04-25T12:34:44;14.10;91.50
15690;DHT22;7945;48.816;11.506;2023-04-25T12:37:11;14.10;91.40
15690;DHT22;7945;48.816;11.506;2023-04-25T12:39:38;14.20;92.00
15690;DHT22;7945;48.816;11.506;2023-04-25T12:42:06;14.00;91.80
15690;DHT22;7945;48.816;11.506;2023-04-25T12:44:37;14.00;91.70
15690;DHT22;7945;48.816;11.506;2023-04-25T12:47:04;13.90;92.00
15690;DHT22;7945;48.816;11.506;2023-04-25T12:49:31;13.70;93.10
15690;DHT22;7945;48.816;11.506;2023-04-25T12:51:58;13.60;93.30
15690;DHT22;7945;48.816;11.506;2023-04-25T12:54:25;13.40;93.00
15690;DHT22;7945;48.816;11.506;2023-04-25T12:56:52;13.40;93.00
15690;DHT22;7945;48.816;11.506;2023-04-25T12:59:20;13.50;96.40
15690;DHT22;7945;48.816;11.506;2023-04-25T13:01:47;13.60;92.00
15690;DHT22;7945;48.816;11.506;2023-04-25T13:04:13;13.60;90.90
15690;DHT22;7945;48.816;11.506;2023-04-25T13:06:41;13.60;91.20
15690;DHT22;7945;48.816;11.506;2023-04-25T13:09:07;13.50;91.30
15690;DHT22;7945;48.816;11.506;2023-04-25T13:11:35;13.50;91.40
15690;DHT22;7945;48.816;11.506;2023-04-25T13:14:01;13.60;91.50
15690;DHT22;7945;48.816;11.506;2023-04-25T13:16:30;13.60;90.70
15690;DHT22;7945;48.816;11.506;2023-04-25T13:18:57;13.70;91.10
15690;DHT22;7945;48.816;11.506;2023-04-25T13:21:24;13.90;90.60
15690;DHT22;7945;48.816;11.506;2023-04-25T13:23:51;14.10;90.70
15690;DHT22;7945;48.816;11.506;2023-04-25T13:26:17;14.20;90.30
15690;DHT22;7945;48.816;11.506;2023-04-25T13:28:45;14.30;90.10
15690;DHT22;7945;48.816;11.506;2023-04-25T13:31:11;14.10;89.90
15690;DHT22;7945;48.816;11.506;2023-04-25T13:33:39;14.10;90.80
15690;DHT22;7945;48.816;11.506;2023-04-25T13:36:06;14.00;91.20
15690;DHT22;7945;48.816;11.506;2023-04-25T13:38:33;14.00;90.90
15690;DHT22;7945;48.816;11.506;2023-04-25T13:41:00;14.10;92.30
15690;DHT22;7945;48.816;11.506;2023-04-25T13:43:27;14.10;90.40
15690;DHT22;7945;48.816;11.506;2023-04-25T13:45:53;14.10;90.10
15690;DHT22;7945;48.816;11.506;2023-04-25T13:48:20;14.10;90.40
15690;DHT22;7945;48.816;11.506;2023-04-25T13:50:49;14.10;90.10
15690;DHT22;7945;48.816;11.506;2023-04-25T13:53:16;14.10;90.60
15690;DHT22;7945;48.816;11.506;2023-04-25T13:55:43;14.10;90.10
15690;DHT22;7945;48.816;11.506;2023-04-25T13:58:10;14.10;90.40
15690;DHT22;7945;48.816;11.506;2023-04-25T14:00:38;14.10;89.60
15690;DHT22;7945;48.816;11.506;2023-04-25T14:03:05;14.10;87.10
15690;DHT22;7945;48.816;11.506;2023-04-25T14:05:34;14.10;88.80
15690;DHT22;7945;48.816;11.506;2023-04-25T14:08:05;14.10;87.50
15690;DHT22;7945;48.816;11.506;2023-04-25T14:10:32;14.10;88.90
15690;DHT22;7945;48.816;11.506;2023-04-25T14:13:00;14.10;88.70
15690;DHT22;7945;48.816;11.506;2023-04-25T14:15:28;14.10;87.20
15690;DHT22;7945;48.816;11.506;2023-04-25T14:17:55;14.20;89.20
15690;DHT22;7945;48.816;11.506;2023-04-25T14:20:22;14.40;88.50
15690;DHT22;7945;48.816;11.506;2023-04-25T14:22:49;14.50;87.70
15690;DHT22;7945;48.816;11.506;2023-04-25T14:25:18;14.50;85.90
15690;DHT22;7945;48.816;11.506;2023-04-25T14:27:45;14.30;85.50
15690;DHT22;7945;48.816;11.506;2023-04-25T14:30:15;14.20;87.00
15690;DHT22;7945;48.816;11.506;2023-04-25T14:32:42;14.10;87.80
15690;DHT22;7945;48.816;11.506;2023-04-25T14:35:09;14.00;86.90
15690;DHT22;7945;48.816;11.506;2023-04-25T14:37:36;13.80;87.70
15690;DHT22;7945;48.816;11.506;2023-04-25T14:40:03;13.70;87.60
15690;DHT22;7945;48.816;11.506;2023-04-25T14:42:33;13.60;87.90
15690;DHT22;7945;48.816;11.506;2023-04-25T14:45:01;13.60;89.30
15690;DHT22;7945;48.816;11.506;2023-04-25T14:47:27;13.60;89.50
15690;DHT22;7945;48.816;11.506;2023-04-25T14:49:54;13.60;89.00
15690;DHT22;7945;48.816;11.506;2023-04-25T14:52:21;13.50;89.40
15690;DHT22;7945;48.816;11.506;2023-04-25T14:54:48;13.40;88.90
15690;DHT22;7945;48.816;11.506;2023-04-25T14:57:15;13.40;88.90
15690;DHT22;7945;48.816;11.506;2023-04-25T14:59:44;13.40;89.40
15690;DHT22;7945;48.816;11.506;2023-04-25T15:02:11;13.40;90.10
15690;DHT22;7945;48.816;11.506;2023-04-25T15:04:37;13.40;90.40
15690;DHT22;7945;48.816;11.506;2023-04-25T15:07:05;13.30;90.20
15690;DHT22;7945;48.816;11.506;2023-04-25T15:09:32;13.30;90.40
15690;DHT22;7945;48.816;11.506;2023-04-25T15:11:58;13.30;90.40
15690;DHT22;7945;48.816;11.506;2023-04-25T15:14:26;13.40;90.60
15690;DHT22;7945;48.816;11.506;2023-04-25T15:20:13;13.40;89.60
15690;DHT22;7945;48.816;11.506;2023-04-25T15:22:41;13.30;88.80
15690;DHT22;7945;48.816;11.506;2023-04-25T15:25:08;13.30;95.50
15690;DHT22;7945;48.816;11.506;2023-04-25T15:27:35;13.50;89.60
15690;DHT22;7945;48.816;11.506;2023-04-25T15:30:06;13.40;89.60
15690;DHT22;7945;48.816;11.506;2023-04-25T15:32:34;13.40;89.60
15690;DHT22;7945;48.816;11.506;2023-04-25T15:35:04;13.30;90.10
15690;DHT22;7945;48.816;11.506;2023-04-25T15:37:32;13.30;90.10
15690;DHT22;7945;48.816;11.506;2023-04-25T15:40:01;13.30;90.20
15690;DHT22;7945;48.816;11.506;2023-04-25T15:42:30;13.20;89.00